Du har inga inställningar för hoppväder.nu

Hoppväder.nu

Senast uppdaterat 00:09

UTC-tid

2019-06-25 kl. 22:09


Sol och måne

Solen går upp 4:03 och går ner 23:31 (beräknade cirkatider)
Nästa fullmåne blir om 20 dagar (2019-07-16)

METAR

ENRY (Moss, Rygge)
(19 minuter sedan)
ENRY 252150Z AUTO 02004KT 9999NDV -DZ FEW098/// 13/12 Q1022=



ESGT (Trollhättan/Vänersborg)
(19 minuter sedan)
ESGT 252150Z AUTO 33005KT 310V010 9999 FEW096/// SCT140/// BKN190/// 16/14 Q1021=



ENTO (Sandefjord)
(19 minuter sedan)
ENTO 252150Z AUTO 36005KT 9999 -RA BKN090/// 12/12 Q1022=



ESIB (Såtenäs)
(19 minuter sedan)
ESIB 252150Z AUTO 07006KT 9999 BKN094/// 17/15 Q1021=



ESOK (Karlstad)
(19 minuter sedan)
ESOK 252150Z AUTO 06004KT 9999 -RA FEW100/// 15/14 Q1022=



TAF

ENRY (Moss, Rygge)
(309 minuter sedan)
ENRY 251700Z 2518/2618 02008KT 9999 FEW040 BKN060 PROB40 TEMPO 2521/2609 SHRA FEW030CB BKN040 PROB30 2615/2618 21010KT=



ESGT (Trollhättan/Vänersborg)
(279 minuter sedan)
ESGT 251730Z 2518/2521 01006KT CAVOK=



ENTO (Sandefjord)
(309 minuter sedan)
ENTO 251700Z 2518/2618 02008KT 9999 FEW040 BKN080 TEMPO 2521/2609 SHRA FEW030CB BKN040 PROB30 2614/2618 21010KT=



ESIB (Såtenäs)
ESIB



ESOK (Karlstad)
(343 minuter sedan)
ESOK AMD 251626Z 2516/2519 03003KT CAVOK TEMPO 2516/2519 RA=





Kodnycklar till TAF och METAR






LHP

(Näsinge är område I2b i Norra delen)

Prognos är inte uppdaterad




Spotting

Hur fungerar spotthjälpen och Vindkartan?

Markvind är ca 0 m/s.



Vindkartan

Senast uppdaterad 00:09




All data kommer från LFV.se